createdAt,value
2018-07-21T00:02:23.232Z,7.13
2018-07-21T00:04:51.873Z,6.90
2018-07-21T00:07:20.808Z,7.20
2018-07-21T00:09:49.476Z,6.77
2018-07-21T00:12:18.048Z,7.00
2018-07-21T00:14:46.629Z,6.73
2018-07-21T00:17:15.308Z,7.03
2018-07-21T00:19:43.873Z,7.00
2018-07-21T00:22:12.940Z,6.70
2018-07-21T00:24:42.061Z,7.20
2018-07-21T00:27:20.360Z,6.77
2018-07-21T00:29:49.536Z,7.27
2018-07-21T00:32:18.711Z,6.90
2018-07-21T00:34:48.417Z,7.27
2018-07-21T00:37:18.727Z,7.00
2018-07-21T00:39:47.342Z,7.23
2018-07-21T00:42:16.120Z,6.83
2018-07-21T00:44:44.750Z,7.40
2018-07-21T00:47:13.383Z,6.93
2018-07-21T00:49:42.039Z,7.17
2018-07-21T00:52:10.685Z,7.00
2018-07-21T00:54:39.397Z,6.67
2018-07-21T00:57:08.125Z,6.73
2018-07-21T00:59:36.822Z,6.67
2018-07-21T01:02:05.423Z,7.33
2018-07-21T01:04:34.056Z,7.70
2018-07-21T01:07:02.631Z,7.33
2018-07-21T01:09:31.242Z,7.47
2018-07-21T01:11:59.883Z,7.10
2018-07-21T01:14:28.544Z,7.20
2018-07-21T01:16:57.005Z,7.07
2018-07-21T01:19:25.708Z,7.40
2018-07-21T01:21:54.333Z,7.53
2018-07-21T01:24:22.948Z,7.23
2018-07-21T01:26:51.532Z,7.50
2018-07-21T01:29:20.143Z,7.57
2018-07-21T01:31:48.751Z,7.97
2018-07-21T01:34:17.412Z,8.23
2018-07-21T01:36:46.011Z,7.60
2018-07-21T01:39:14.696Z,8.00
2018-07-21T01:41:43.295Z,7.70
2018-07-21T01:44:11.948Z,8.37
2018-07-21T01:46:40.958Z,8.90
2018-07-21T01:49:09.621Z,8.87
2018-07-21T01:51:38.109Z,8.40
2018-07-21T01:54:06.732Z,8.07
2018-07-21T01:56:35.431Z,8.80
2018-07-21T01:59:04.123Z,8.73
2018-07-21T02:01:32.788Z,8.73
2018-07-21T02:04:01.425Z,8.53
2018-07-21T02:06:29.870Z,9.30
2018-07-21T02:08:58.556Z,8.97
2018-07-21T02:11:27.171Z,8.80
2018-07-21T02:13:55.843Z,9.30
2018-07-21T02:16:24.483Z,9.07
2018-07-21T02:18:53.131Z,8.93
2018-07-21T02:21:21.760Z,8.87
2018-07-21T02:23:50.412Z,8.87
2018-07-21T02:26:19.001Z,8.87
2018-07-21T02:28:47.596Z,9.23
2018-07-21T02:31:16.191Z,8.90
2018-07-21T02:33:44.757Z,9.60
2018-07-21T02:36:13.400Z,9.47
2018-07-21T02:38:42.076Z,8.80
2018-07-21T02:41:10.736Z,9.40
2018-07-21T02:43:39.402Z,9.20
2018-07-21T02:46:08.086Z,9.57
2018-07-21T02:48:36.751Z,9.73
2018-07-21T02:51:05.472Z,8.70
2018-07-21T02:53:34.131Z,9.97
2018-07-21T02:56:02.807Z,10.50
2018-07-21T02:58:31.427Z,10.63
2018-07-21T03:01:00.077Z,11.03
2018-07-21T03:03:28.720Z,11.07
2018-07-21T03:05:57.331Z,10.67
2018-07-21T03:08:25.978Z,11.23
2018-07-21T03:10:54.567Z,11.77
2018-07-21T03:13:23.141Z,11.37
2018-07-21T03:15:51.766Z,10.57
2018-07-21T03:18:20.488Z,12.10
2018-07-21T03:20:49.108Z,12.73
2018-07-21T03:23:17.793Z,12.73
2018-07-21T03:25:46.448Z,16.00
2018-07-21T03:28:15.133Z,15.10
2018-07-21T03:30:43.813Z,17.50
2018-07-21T03:33:12.450Z,18.33
2018-07-21T03:35:41.148Z,18.77
2018-07-21T03:38:09.582Z,19.07
2018-07-21T03:40:38.297Z,19.50
2018-07-21T03:43:07.045Z,22.17
2018-07-21T03:45:35.748Z,21.03
2018-07-21T03:48:04.451Z,20.00
2018-07-21T03:50:33.108Z,20.07
2018-07-21T03:53:01.893Z,18.13
2018-07-21T03:55:30.455Z,18.40
2018-07-21T03:57:59.117Z,17.07
2018-07-21T04:00:27.813Z,18.67
2018-07-21T04:02:56.493Z,18.30
2018-07-21T04:05:25.128Z,19.47
2018-07-21T04:07:53.735Z,21.10
2018-07-21T04:10:22.444Z,21.70
2018-07-21T04:12:51.046Z,24.87
2018-07-21T04:15:19.610Z,24.37
2018-07-21T04:17:48.183Z,24.90
2018-07-21T04:20:16.803Z,22.70
2018-07-21T04:22:45.480Z,22.60
2018-07-21T04:25:14.103Z,20.50
2018-07-21T04:27:42.695Z,20.63
2018-07-21T04:30:11.303Z,19.87
2018-07-21T04:32:39.768Z,19.43
2018-07-21T04:35:08.575Z,20.53
2018-07-21T04:37:37.277Z,19.63
2018-07-21T04:40:07.398Z,20.63
2018-07-21T04:42:36.116Z,18.93
2018-07-21T04:45:04.811Z,19.07
2018-07-21T04:47:33.448Z,18.83
2018-07-21T04:50:02.105Z,18.73
2018-07-21T04:52:30.557Z,18.57
2018-07-21T04:54:59.215Z,18.73
2018-07-21T04:57:28.015Z,17.07
2018-07-21T04:59:56.708Z,17.03
2018-07-21T05:02:25.357Z,16.60
2018-07-21T05:04:53.982Z,17.77
2018-07-21T05:07:22.765Z,18.20
2018-07-21T05:09:51.420Z,18.67
2018-07-21T05:12:20.058Z,17.87
2018-07-21T05:14:48.646Z,17.07
2018-07-21T05:17:17.295Z,18.23
2018-07-21T05:19:45.923Z,17.00
2018-07-21T05:22:14.373Z,16.10
2018-07-21T05:24:42.990Z,17.03
2018-07-21T05:27:11.639Z,19.13
2018-07-21T05:29:40.350Z,22.33
2018-07-21T05:32:09.070Z,23.77
2018-07-21T05:34:37.783Z,23.10
2018-07-21T05:37:06.645Z,23.00
2018-07-21T05:39:35.385Z,22.03
2018-07-21T05:42:04.298Z,22.27
2018-07-21T05:44:32.791Z,21.77
2018-07-21T05:47:01.669Z,21.80
2018-07-21T05:49:30.223Z,22.27
2018-07-21T05:51:58.895Z,21.87
2018-07-21T05:54:27.597Z,22.17
2018-07-21T05:56:56.298Z,22.23
2018-07-21T05:59:24.941Z,24.17
2018-07-21T06:01:53.523Z,22.37
2018-07-21T06:04:22.896Z,23.33
2018-07-21T06:06:51.791Z,23.17
2018-07-21T06:09:20.459Z,23.27
2018-07-21T06:11:48.909Z,20.87
2018-07-21T06:14:17.558Z,21.93
2018-07-21T06:16:46.788Z,22.17
2018-07-21T06:19:16.813Z,23.53
2018-07-21T06:21:45.485Z,22.60
2018-07-21T06:24:14.156Z,23.40
2018-07-21T06:26:42.786Z,21.50
2018-07-21T06:29:11.484Z,21.07
2018-07-21T06:31:40.189Z,20.67
2018-07-21T06:34:08.844Z,22.50
2018-07-21T06:36:37.502Z,20.20
2018-07-21T06:39:09.583Z,19.27
2018-07-21T06:41:38.221Z,20.43
2018-07-21T06:44:07.301Z,20.57
2018-07-21T06:46:36.023Z,20.10
2018-07-21T06:49:04.758Z,19.43
2018-07-21T06:51:33.525Z,19.17
2018-07-21T06:54:02.192Z,17.83
2018-07-21T06:56:30.928Z,18.47
2018-07-21T06:58:59.555Z,18.23
2018-07-21T07:01:28.399Z,18.90
2018-07-21T07:03:57.045Z,18.57
2018-07-21T07:06:25.758Z,16.50
2018-07-21T07:08:54.358Z,18.00
2018-07-21T07:11:22.978Z,17.60
2018-07-21T07:13:51.655Z,16.43
2018-07-21T07:16:20.326Z,15.00
2018-07-21T07:18:48.943Z,15.43
2018-07-21T07:21:17.606Z,14.18
2018-07-21T07:23:46.303Z,13.73
2018-07-21T07:26:14.990Z,13.50
2018-07-21T07:28:43.628Z,12.63
2018-07-21T07:31:12.216Z,12.63
2018-07-21T07:33:40.939Z,12.87
2018-07-21T07:36:09.563Z,12.43
2018-07-21T07:38:38.236Z,11.17
2018-07-21T07:41:06.690Z,11.90
2018-07-21T07:43:35.343Z,10.83
2018-07-21T07:46:06.380Z,11.53
2018-07-21T07:48:35.396Z,10.63
2018-07-21T07:51:04.011Z,12.13
2018-07-21T07:53:34.582Z,11.57
2018-07-21T07:56:02.982Z,11.63
2018-07-21T07:58:31.611Z,11.00
2018-07-21T08:01:00.342Z,11.13
2018-07-21T08:03:29.073Z,10.80
2018-07-21T08:05:57.851Z,10.97
2018-07-21T08:08:26.589Z,10.63
2018-07-21T08:10:55.231Z,10.77
2018-07-21T08:13:24.124Z,10.83
2018-07-21T08:15:52.730Z,10.00
2018-07-21T08:18:21.541Z,10.00
2018-07-21T08:20:50.183Z,9.80
2018-07-21T08:23:18.913Z,9.90
2018-07-21T08:25:47.824Z,9.73
2018-07-21T08:28:17.264Z,10.23
2018-07-21T08:30:45.978Z,10.10
2018-07-21T08:33:15.379Z,9.45
2018-07-21T08:35:44.058Z,9.88
2018-07-21T08:38:12.649Z,9.63
2018-07-21T08:40:42.291Z,9.15
2018-07-21T08:43:11.006Z,9.63
2018-07-21T08:45:39.673Z,9.25
2018-07-21T08:48:08.723Z,8.78
2018-07-21T08:50:37.381Z,8.83
2018-07-21T08:53:06.009Z,8.33
2018-07-21T08:55:34.753Z,8.10
2018-07-21T08:58:04.160Z,9.07
2018-07-21T09:00:33.027Z,8.23
2018-07-21T09:03:01.794Z,8.43
2018-07-21T09:05:30.456Z,9.15
2018-07-21T09:07:59.149Z,8.10
2018-07-21T09:10:27.853Z,7.80
2018-07-21T09:12:57.591Z,8.75
2018-07-21T09:15:26.341Z,8.70
2018-07-21T09:17:55.004Z,7.80
2018-07-21T09:20:24.390Z,7.87
2018-07-21T09:22:53.116Z,7.75
2018-07-21T09:25:21.910Z,8.05
2018-07-21T09:27:51.712Z,8.25
2018-07-21T09:30:20.383Z,8.18
2018-07-21T09:32:49.045Z,8.03
2018-07-21T09:35:18.873Z,8.25
2018-07-21T09:37:47.591Z,8.23
2018-07-21T09:40:17.491Z,8.05
2018-07-21T09:42:46.180Z,7.92
2018-07-21T09:45:14.851Z,7.80
2018-07-21T09:47:43.645Z,8.23
2018-07-21T09:50:12.363Z,8.63
2018-07-21T09:52:41.196Z,8.28
2018-07-21T09:55:10.103Z,8.43
2018-07-21T09:57:38.842Z,7.85
2018-07-21T10:00:10.758Z,8.53
2018-07-21T10:02:39.558Z,8.50
2018-07-21T10:05:09.173Z,7.80
2018-07-21T10:07:38.982Z,8.08
2018-07-21T10:10:07.838Z,7.60
2018-07-21T10:12:36.699Z,8.00
2018-07-21T10:15:06.338Z,7.72
2018-07-21T10:17:35.012Z,7.85
2018-07-21T10:20:04.089Z,7.55
2018-07-21T10:22:32.882Z,8.18
2018-07-21T10:25:06.853Z,7.95
2018-07-21T10:27:41.214Z,7.83
2018-07-21T10:30:09.883Z,7.87
2018-07-21T10:32:38.673Z,9.33
2018-07-21T10:35:07.848Z,7.95
2018-07-21T10:37:36.741Z,8.48
2018-07-21T10:40:05.584Z,8.48
2018-07-21T10:42:35.052Z,8.10
2018-07-21T10:45:03.735Z,7.87
2018-07-21T10:47:33.181Z,8.40
2018-07-21T10:50:01.891Z,7.47
2018-07-21T10:52:30.586Z,8.20
2018-07-21T10:54:59.413Z,7.20
2018-07-21T10:57:28.570Z,8.18
2018-07-21T10:59:57.867Z,8.20
2018-07-21T11:02:26.554Z,7.67
2018-07-21T11:04:55.367Z,8.68
2018-07-21T11:07:24.222Z,7.83
2018-07-21T11:09:53.011Z,8.08
2018-07-21T11:12:21.713Z,8.28
2018-07-21T11:14:51.587Z,7.10
2018-07-21T11:17:20.598Z,7.45
2018-07-21T11:19:49.289Z,7.03
2018-07-21T11:22:18.026Z,6.87
2018-07-21T11:24:46.743Z,7.17
2018-07-21T11:27:15.540Z,5.33
2018-07-21T11:29:44.278Z,4.45
2018-07-21T11:32:13.132Z,4.22
2018-07-21T11:34:42.027Z,3.40
2018-07-21T11:37:10.667Z,3.60
2018-07-21T11:39:39.399Z,3.55
2018-07-21T11:42:08.132Z,3.30
2018-07-21T11:44:36.941Z,3.58
2018-07-21T11:47:05.567Z,3.52
2018-07-21T11:49:34.776Z,3.75
2018-07-21T11:52:03.584Z,3.77
2018-07-21T11:54:32.274Z,3.67
2018-07-21T11:57:01.983Z,3.50
2018-07-21T11:59:31.927Z,3.60
2018-07-21T12:02:00.788Z,4.08
2018-07-21T12:04:30.509Z,3.60
2018-07-21T12:06:59.201Z,3.60
2018-07-21T12:09:27.872Z,3.50
2018-07-21T12:11:56.660Z,4.00
2018-07-21T12:14:25.456Z,3.58
2018-07-21T12:16:54.076Z,3.60
2018-07-21T12:19:22.774Z,3.72
2018-07-21T12:21:51.513Z,3.87
2018-07-21T12:24:20.286Z,3.50
2018-07-21T12:26:48.928Z,3.47
2018-07-21T12:29:18.231Z,3.45
2018-07-21T12:31:47.016Z,3.65
2018-07-21T12:34:15.801Z,3.52
2018-07-21T12:36:44.731Z,3.62
2018-07-21T12:39:13.353Z,3.45
2018-07-21T12:41:42.137Z,3.47
2018-07-21T12:44:10.804Z,3.15
2018-07-21T12:46:39.549Z,3.27
2018-07-21T12:49:08.259Z,3.60
2018-07-21T12:51:36.787Z,3.27
2018-07-21T12:54:05.597Z,3.35
2018-07-21T12:56:34.332Z,3.40
2018-07-21T12:59:03.312Z,3.60
2018-07-21T13:01:32.031Z,3.58
2018-07-21T13:04:01.350Z,3.52
2018-07-21T13:06:30.086Z,3.70
2018-07-21T13:08:58.775Z,3.10
2018-07-21T13:11:27.613Z,3.10
2018-07-21T13:13:56.283Z,3.40
2018-07-21T13:16:25.079Z,3.45
2018-07-21T13:18:53.759Z,3.60
2018-07-21T13:21:22.971Z,3.40
2018-07-21T13:23:51.818Z,3.70
2018-07-21T13:26:20.669Z,3.70
2018-07-21T13:28:50.044Z,3.25
2018-07-21T13:31:19.423Z,3.70
2018-07-21T13:33:48.152Z,3.35
2018-07-21T13:36:16.876Z,3.58
2018-07-21T13:38:45.850Z,3.42
2018-07-21T13:41:14.676Z,3.52
2018-07-21T13:43:43.556Z,3.83
2018-07-21T13:46:12.292Z,3.65
2018-07-21T13:48:41.049Z,3.80
2018-07-21T13:51:09.879Z,3.40
2018-07-21T13:53:38.606Z,3.20
2018-07-21T13:56:07.360Z,3.33
2018-07-21T13:58:36.252Z,3.30
2018-07-21T14:01:05.129Z,3.67
2018-07-21T14:03:34.475Z,3.40
2018-07-21T14:06:04.291Z,3.27
2018-07-21T14:08:33.976Z,3.20
2018-07-21T14:11:02.896Z,2.80
2018-07-21T14:13:31.687Z,3.00
2018-07-21T14:16:00.585Z,2.92
2018-07-21T14:18:29.285Z,2.83
2018-07-21T14:20:58.805Z,2.60
2018-07-21T14:23:27.619Z,3.02
2018-07-21T14:25:56.495Z,2.58
2018-07-21T14:28:25.277Z,2.40
2018-07-21T14:30:54.150Z,2.52
2018-07-21T14:33:22.890Z,2.40
2018-07-21T14:35:51.733Z,3.05
2018-07-21T14:38:20.481Z,2.90
2018-07-21T14:40:49.193Z,3.12
2018-07-21T14:43:18.795Z,2.35
2018-07-21T14:45:47.851Z,3.02
2018-07-21T14:48:16.563Z,2.70
2018-07-21T14:50:46.996Z,2.90
2018-07-21T14:53:16.319Z,3.00
2018-07-21T14:55:45.849Z,3.12
2018-07-21T14:58:14.605Z,3.17
2018-07-21T15:00:43.904Z,3.00
2018-07-21T15:03:12.780Z,2.85
2018-07-21T15:05:41.554Z,3.33
2018-07-21T15:08:10.358Z,3.25
2018-07-21T15:10:39.083Z,3.10
2018-07-21T15:13:07.824Z,3.05
2018-07-21T15:15:36.564Z,3.30
2018-07-21T15:18:05.367Z,3.40
2018-07-21T15:20:34.079Z,3.17
2018-07-21T15:23:02.997Z,3.20
2018-07-21T15:25:31.676Z,3.15
2018-07-21T15:28:01.163Z,3.45
2018-07-21T15:30:29.899Z,3.00
2018-07-21T15:32:58.639Z,3.45
2018-07-21T15:35:27.378Z,3.22
2018-07-21T15:37:56.284Z,4.03
2018-07-21T15:40:25.684Z,3.50
2018-07-21T15:42:54.426Z,3.52
2018-07-21T15:45:23.258Z,3.40
2018-07-21T15:47:51.899Z,3.20
2018-07-21T15:50:20.679Z,3.47
2018-07-21T15:52:49.428Z,3.42
2018-07-21T15:55:19.119Z,3.08
2018-07-21T15:57:47.593Z,3.77
2018-07-21T16:00:16.272Z,3.33
2018-07-21T16:02:44.826Z,3.30
2018-07-21T16:05:13.601Z,3.45
2018-07-21T16:07:42.338Z,3.58
2018-07-21T16:10:11.087Z,3.00
2018-07-21T16:12:39.838Z,3.40
2018-07-21T16:15:08.525Z,3.72
2018-07-21T16:17:37.246Z,3.33
2018-07-21T16:20:06.183Z,3.35
2018-07-21T16:22:34.983Z,3.35
2018-07-21T16:25:04.982Z,3.60
2018-07-21T16:27:33.831Z,3.80
2018-07-21T16:30:02.571Z,3.55
2018-07-21T16:32:31.342Z,3.52
2018-07-21T16:34:59.996Z,3.55
2018-07-21T16:37:28.676Z,4.15
2018-07-21T16:39:57.341Z,3.60
2018-07-21T16:42:26.086Z,4.10
2018-07-21T16:44:54.719Z,3.90
2018-07-21T16:47:23.395Z,4.10
2018-07-21T16:49:52.103Z,3.90
2018-07-21T16:52:21.316Z,3.98
2018-07-21T16:54:50.097Z,3.87
2018-07-21T16:57:18.824Z,4.03
2018-07-21T16:59:47.676Z,3.98
2018-07-21T17:02:17.186Z,3.90
2018-07-21T17:04:46.926Z,3.72
2018-07-21T17:07:15.698Z,4.20
2018-07-21T17:09:45.138Z,4.10
2018-07-21T17:12:13.771Z,4.50
2018-07-21T17:14:42.464Z,3.95
2018-07-21T17:17:11.840Z,4.17
2018-07-21T17:19:40.603Z,4.20
2018-07-21T17:22:09.291Z,4.20
2018-07-21T17:24:37.923Z,4.10
2018-07-21T17:27:06.587Z,4.20
2018-07-21T17:29:35.291Z,4.37
2018-07-21T17:32:03.903Z,4.40
2018-07-21T17:34:32.363Z,4.70
2018-07-21T17:37:01.119Z,4.10
2018-07-21T17:39:29.758Z,4.00
2018-07-21T17:41:58.223Z,3.98
2018-07-21T17:44:26.948Z,4.10
2018-07-21T17:46:55.600Z,4.62
2018-07-21T17:49:24.046Z,4.00
2018-07-21T17:51:52.779Z,4.08
2018-07-21T17:54:21.464Z,4.50
2018-07-21T17:56:49.917Z,4.30
2018-07-21T17:59:18.623Z,4.08
2018-07-21T18:01:47.375Z,4.42
2018-07-21T18:04:16.003Z,4.67
2018-07-21T18:06:44.742Z,4.85
2018-07-21T18:09:13.390Z,4.20
2018-07-21T18:11:42.065Z,4.05
2018-07-21T18:14:10.750Z,4.60
2018-07-21T18:16:39.573Z,4.47
2018-07-21T18:19:08.316Z,4.20
2018-07-21T18:21:36.785Z,4.67
2018-07-21T18:24:05.470Z,4.45
2018-07-21T18:26:34.158Z,4.28
2018-07-21T18:29:02.930Z,5.05
2018-07-21T18:31:31.707Z,4.70
2018-07-21T18:34:00.437Z,5.28
2018-07-21T18:36:29.112Z,5.08
2018-07-21T18:38:57.896Z,4.90
2018-07-21T18:41:26.714Z,4.70
2018-07-21T18:43:55.412Z,4.60
2018-07-21T18:46:24.138Z,4.00
2018-07-21T18:48:52.775Z,4.40
2018-07-21T18:51:21.928Z,4.20
2018-07-21T18:53:50.550Z,4.45
2018-07-21T18:56:19.196Z,4.45
2018-07-21T18:58:47.825Z,4.53
2018-07-21T19:01:16.565Z,4.47
2018-07-21T19:03:45.190Z,4.50
2018-07-21T19:06:13.863Z,4.27
2018-07-21T19:08:48.050Z,4.85
2018-07-21T19:11:16.723Z,4.77
2018-07-21T19:13:45.438Z,4.47
2018-07-21T19:16:48.783Z,4.43
2018-07-21T19:19:17.561Z,4.50
2018-07-21T19:21:47.024Z,5.05
2018-07-21T19:24:15.501Z,4.90
2018-07-21T19:26:49.801Z,4.43
2018-07-21T19:29:18.608Z,4.43
2018-07-21T19:31:53.036Z,4.20
2018-07-21T19:34:21.778Z,4.53
2018-07-21T19:36:50.395Z,4.50
2018-07-21T19:39:19.788Z,4.43
2018-07-21T19:41:54.506Z,4.63
2018-07-21T19:44:24.663Z,4.90
2018-07-21T19:46:53.441Z,5.30
2018-07-21T19:49:22.241Z,4.63
2018-07-21T19:51:51.663Z,4.90
2018-07-21T19:54:21.562Z,4.10
2018-07-21T19:56:50.342Z,4.80
2018-07-21T19:59:19.739Z,4.27
2018-07-21T20:01:48.244Z,4.67
2018-07-21T20:04:16.971Z,4.47
2018-07-21T20:06:45.734Z,4.50
2018-07-21T20:09:14.451Z,5.60
2018-07-21T20:11:43.119Z,4.97
2018-07-21T20:14:12.623Z,5.17
2018-07-21T20:16:41.230Z,4.77
2018-07-21T20:19:09.915Z,4.50
2018-07-21T20:21:38.575Z,4.63
2018-07-21T20:24:07.383Z,6.00
2018-07-21T20:26:36.045Z,5.20
2018-07-21T20:29:04.752Z,5.17
2018-07-21T20:31:33.667Z,4.70
2018-07-21T20:34:02.184Z,5.40
2018-07-21T20:36:30.910Z,4.83
2018-07-21T20:38:59.621Z,4.90
2018-07-21T20:41:28.241Z,5.27
2018-07-21T20:43:56.996Z,5.13
2018-07-21T20:46:26.143Z,5.10
2018-07-21T20:48:54.927Z,5.00
2018-07-21T20:51:23.754Z,5.13
2018-07-21T20:53:52.566Z,5.23
2018-07-21T20:56:21.469Z,5.00
2018-07-21T20:58:50.263Z,5.20
2018-07-21T21:01:18.941Z,5.50
2018-07-21T21:03:47.648Z,4.80
2018-07-21T21:06:16.811Z,5.43
2018-07-21T21:08:46.353Z,5.60
2018-07-21T21:11:15.092Z,5.27
2018-07-21T21:13:43.779Z,5.43
2018-07-21T21:16:12.322Z,5.27
2018-07-21T21:18:41.766Z,5.70
2018-07-21T21:21:10.546Z,5.30
2018-07-21T21:23:39.066Z,5.43
2018-07-21T21:26:07.856Z,5.80
2018-07-21T21:28:36.653Z,5.57
2018-07-21T21:31:05.448Z,5.90
2018-07-21T21:33:34.644Z,5.60
2018-07-21T21:36:03.431Z,5.50
2018-07-21T21:38:32.624Z,5.47
2018-07-21T21:41:01.317Z,5.30
2018-07-21T21:43:30.024Z,5.67
2018-07-21T21:45:58.709Z,5.70
2018-07-21T21:48:28.066Z,5.53
2018-07-21T21:50:57.245Z,5.27
2018-07-21T21:53:25.724Z,5.90
2018-07-21T21:55:54.256Z,5.80
2018-07-21T21:58:23.053Z,5.57
2018-07-21T22:01:03.956Z,5.63
2018-07-21T22:03:32.656Z,5.30
2018-07-21T22:06:01.458Z,5.50
2018-07-21T22:08:31.059Z,5.33
2018-07-21T22:10:59.772Z,5.27
2018-07-21T22:13:28.993Z,5.70
2018-07-21T22:15:58.221Z,5.57
2018-07-21T22:18:27.194Z,5.87
2018-07-21T22:20:55.944Z,5.47
2018-07-21T22:23:24.611Z,5.60
2018-07-21T22:25:53.261Z,5.83
2018-07-21T22:28:21.733Z,5.67
2018-07-21T22:30:50.365Z,6.00
2018-07-21T22:33:19.477Z,5.90
2018-07-21T22:35:48.199Z,6.20
2018-07-21T22:38:16.961Z,5.63
2018-07-21T22:40:45.639Z,5.80
2018-07-21T22:43:14.425Z,6.00
2018-07-21T22:45:43.103Z,5.77
2018-07-21T22:48:12.272Z,6.00
2018-07-21T22:50:41.926Z,5.87
2018-07-21T22:53:10.582Z,5.97
2018-07-21T22:55:39.468Z,6.40
2018-07-21T22:58:08.193Z,6.10
2018-07-21T23:00:37.303Z,6.03
2018-07-21T23:03:06.718Z,6.60
2018-07-21T23:05:35.286Z,6.57
2018-07-21T23:08:03.990Z,7.00
2018-07-21T23:10:33.039Z,6.23
2018-07-21T23:13:02.452Z,6.30
2018-07-21T23:15:31.186Z,6.27
2018-07-21T23:17:59.823Z,7.07
2018-07-21T23:20:28.454Z,6.53
2018-07-21T23:22:57.155Z,7.27
2018-07-21T23:25:25.800Z,7.07
2018-07-21T23:27:54.573Z,7.47
2018-07-21T23:30:23.233Z,6.73
2018-07-21T23:32:51.933Z,6.50
2018-07-21T23:35:20.896Z,6.73
2018-07-21T23:37:49.597Z,6.70
2018-07-21T23:40:18.318Z,6.63
2018-07-21T23:42:48.808Z,7.00
2018-07-21T23:45:17.498Z,7.00
2018-07-21T23:47:46.188Z,7.30
2018-07-21T23:50:15.211Z,6.67
2018-07-21T23:52:43.998Z,7.13
2018-07-21T23:55:12.679Z,7.00
2018-07-21T23:57:41.337Z,7.07
